Airport ICAO


11:57 UTC

22°C

Clear skies


An affordable passengers' Moving Map for your aircraft. Made for the iPad and the iPhone
More information here

LFLB Aix Les Bains


Chambery FRANCE   VFR CAVOK


METAR LFLB 191130Z AUTO 36004KT CAVOK 22/11 Q1026 NOSIG 0h27min

TAF LFLB 191100Z 1912/2012 36006KT CAVOK 0h57min





NOTAMS

OPEN